createdAt,value
2022-09-12T00:01:41.303Z,99.90
2022-09-12T00:04:13.019Z,99.90
2022-09-12T00:06:45.127Z,99.90
2022-09-12T00:09:16.825Z,99.90
2022-09-12T00:11:48.714Z,99.90
2022-09-12T00:14:20.452Z,99.90
2022-09-12T00:16:52.410Z,99.90
2022-09-12T00:19:24.438Z,99.90
2022-09-12T00:21:56.653Z,99.90
2022-09-12T00:24:28.520Z,99.90
2022-09-12T00:27:00.169Z,99.90
2022-09-12T00:29:31.908Z,99.90
2022-09-12T00:32:03.667Z,99.90
2022-09-12T00:34:36.356Z,99.90
2022-09-12T00:37:08.142Z,99.90
2022-09-12T00:39:39.916Z,99.90
2022-09-12T00:42:12.779Z,99.90
2022-09-12T00:44:47.894Z,99.90
2022-09-12T00:47:24.657Z,99.90
2022-09-12T00:49:57.338Z,99.90
2022-09-12T00:52:40.083Z,99.90
2022-09-12T00:55:23.566Z,99.90
2022-09-12T00:58:08.950Z,99.90
2022-09-12T01:00:40.877Z,99.90
2022-09-12T01:03:16.378Z,99.90
2022-09-12T01:06:01.306Z,99.90
2022-09-12T01:08:37.277Z,99.90
2022-09-12T01:11:11.251Z,99.90
2022-09-12T01:13:45.075Z,99.90
2022-09-12T01:16:17.103Z,99.90
2022-09-12T01:19:05.756Z,99.90
2022-09-12T01:22:04.653Z,99.90
2022-09-12T01:25:03.588Z,99.90
2022-09-12T01:27:41.167Z,99.90
2022-09-12T01:30:18.819Z,99.90
2022-09-12T01:33:03.329Z,99.90
2022-09-12T01:36:08.895Z,99.90
2022-09-12T01:38:48.703Z,99.90
2022-09-12T01:41:35.718Z,99.90
2022-09-12T01:44:33.518Z,99.90
2022-09-12T01:47:14.046Z,99.90
2022-09-12T01:50:07.048Z,99.90
2022-09-12T01:52:49.446Z,99.90
2022-09-12T01:55:27.699Z,99.90
2022-09-12T01:58:34.391Z,99.90
2022-09-12T02:01:33.859Z,99.90
2022-09-12T02:04:11.330Z,99.90
2022-09-12T02:06:54.535Z,99.90
2022-09-12T02:09:29.171Z,99.90
2022-09-12T02:12:01.904Z,99.90
2022-09-12T02:14:48.626Z,99.90
2022-09-12T02:17:23.202Z,99.90
2022-09-12T02:20:01.055Z,99.90
2022-09-12T02:22:36.745Z,99.90
2022-09-12T02:25:10.459Z,99.90
2022-09-12T02:27:47.074Z,99.90
2022-09-12T02:30:19.663Z,99.90
2022-09-12T02:32:54.102Z,99.90
2022-09-12T02:35:40.514Z,99.90
2022-09-12T02:38:20.347Z,99.90
2022-09-12T02:40:52.354Z,99.90
2022-09-12T02:43:24.276Z,99.90
2022-09-12T02:45:56.079Z,99.90
2022-09-12T02:48:32.008Z,99.90
2022-09-12T02:51:04.127Z,99.90
2022-09-12T02:53:36.806Z,99.90
2022-09-12T02:56:13.171Z,99.90
2022-09-12T02:58:45.664Z,99.90
2022-09-12T03:01:37.354Z,99.90
2022-09-12T03:04:36.172Z,99.90
2022-09-12T03:07:37.629Z,99.90
2022-09-12T03:10:15.470Z,99.90
2022-09-12T03:13:14.516Z,99.90
2022-09-12T03:15:52.685Z,99.90
2022-09-12T03:18:47.226Z,99.90
2022-09-12T03:21:47.970Z,99.90
2022-09-12T03:24:38.136Z,99.90
2022-09-12T03:27:18.667Z,99.90
2022-09-12T03:29:51.382Z,99.90
2022-09-12T03:32:42.316Z,99.90
2022-09-12T03:35:17.942Z,99.90
2022-09-12T03:37:52.213Z,99.90
2022-09-12T03:40:23.910Z,99.90
2022-09-12T03:42:55.586Z,99.90
2022-09-12T03:45:27.297Z,99.90
2022-09-12T03:47:59.535Z,99.90
2022-09-12T03:50:31.198Z,99.90
2022-09-12T03:53:03.752Z,99.90
2022-09-12T03:55:36.190Z,99.90
2022-09-12T03:58:07.861Z,99.90
2022-09-12T04:00:40.094Z,99.90
2022-09-12T04:03:11.816Z,99.90
2022-09-12T04:05:43.547Z,99.90
2022-09-12T04:08:15.334Z,99.90
2022-09-12T04:10:47.051Z,99.90
2022-09-12T04:13:18.883Z,99.90
2022-09-12T04:15:58.411Z,99.90
2022-09-12T04:18:30.998Z,99.90
2022-09-12T04:21:07.221Z,99.90
2022-09-12T04:23:39.005Z,99.90
2022-09-12T04:26:11.719Z,99.90
2022-09-12T04:28:44.374Z,99.90
2022-09-12T04:31:18.103Z,99.90
2022-09-12T04:34:00.723Z,99.90
2022-09-12T04:36:34.256Z,99.90
2022-09-12T04:39:06.171Z,99.90
2022-09-12T04:41:39.812Z,99.90
2022-09-12T04:44:14.030Z,99.90
2022-09-12T04:46:47.202Z,99.90
2022-09-12T04:49:19.441Z,99.90
2022-09-12T04:51:53.449Z,99.90
2022-09-12T04:54:25.604Z,99.90
2022-09-12T04:56:57.432Z,99.90
2022-09-12T04:59:29.120Z,99.90
2022-09-12T05:02:00.932Z,99.90
2022-09-12T05:04:32.706Z,99.90
2022-09-12T05:07:05.759Z,99.90
2022-09-12T05:09:37.413Z,99.90
2022-09-12T05:12:09.407Z,99.90
2022-09-12T05:14:41.174Z,99.90
2022-09-12T05:17:12.933Z,99.90
2022-09-12T05:19:44.607Z,99.90
2022-09-12T05:22:16.298Z,99.90
2022-09-12T05:24:54.032Z,99.90
2022-09-12T05:27:25.734Z,99.90
2022-09-12T05:29:57.383Z,99.90
2022-09-12T05:32:32.278Z,99.90
2022-09-12T05:35:04.273Z,99.90
2022-09-12T05:37:35.944Z,99.90
2022-09-12T05:40:08.584Z,99.90
2022-09-12T05:42:40.267Z,99.90
2022-09-12T05:45:11.982Z,99.90
2022-09-12T05:47:46.835Z,99.90
2022-09-12T05:50:18.510Z,99.90
2022-09-12T05:52:50.532Z,99.90
2022-09-12T05:55:23.089Z,99.90
2022-09-12T05:57:54.725Z,99.90
2022-09-12T06:00:28.402Z,99.90
2022-09-12T06:03:03.318Z,99.90
2022-09-12T06:05:34.966Z,99.90
2022-09-12T06:08:07.029Z,99.90
2022-09-12T06:10:38.707Z,99.90
2022-09-12T06:13:10.354Z,99.90
2022-09-12T06:15:42.072Z,99.90
2022-09-12T06:18:13.805Z,99.90
2022-09-12T06:20:45.477Z,99.90
2022-09-12T06:23:17.125Z,99.90
2022-09-12T06:25:50.087Z,99.90
2022-09-12T06:28:21.822Z,99.90
2022-09-12T06:30:53.661Z,99.90
2022-09-12T06:33:25.461Z,99.90
2022-09-12T06:36:03.589Z,99.90
2022-09-12T06:38:35.672Z,99.90
2022-09-12T06:41:10.629Z,99.90
2022-09-12T06:43:42.935Z,99.90
2022-09-12T06:46:14.704Z,99.90
2022-09-12T06:48:46.470Z,99.90
2022-09-12T06:51:20.106Z,99.90
2022-09-12T06:53:52.264Z,99.90
2022-09-12T06:56:26.619Z,99.90
2022-09-12T06:58:59.351Z,99.90
2022-09-12T07:01:32.432Z,99.90
2022-09-12T07:04:04.995Z,99.90
2022-09-12T07:06:39.783Z,99.90
2022-09-12T07:09:13.964Z,99.90
2022-09-12T07:11:46.639Z,99.90
2022-09-12T07:14:18.336Z,99.90
2022-09-12T07:16:50.061Z,99.90
2022-09-12T07:19:22.395Z,99.90
2022-09-12T07:21:58.050Z,99.90
2022-09-12T07:24:30.386Z,99.90
2022-09-12T07:27:02.046Z,99.90
2022-09-12T07:29:37.107Z,99.90
2022-09-12T07:32:12.061Z,99.90
2022-09-12T07:34:45.699Z,99.90
2022-09-12T07:37:17.815Z,99.90
2022-09-12T07:39:49.695Z,99.90
2022-09-12T07:42:22.487Z,99.90
2022-09-12T07:44:54.269Z,99.90
2022-09-12T07:47:25.998Z,99.90
2022-09-12T07:49:58.516Z,99.90
2022-09-12T07:52:31.017Z,99.90
2022-09-12T07:55:03.083Z,99.90
2022-09-12T07:57:34.954Z,99.90
2022-09-12T08:00:08.837Z,99.90
2022-09-12T08:02:40.590Z,99.90
2022-09-12T08:05:12.663Z,99.90
2022-09-12T08:07:44.434Z,99.90
2022-09-12T08:10:16.202Z,99.90
2022-09-12T08:12:47.847Z,99.90
2022-09-12T08:15:20.267Z,99.90
2022-09-12T08:17:51.906Z,99.90
2022-09-12T08:20:28.125Z,99.90
2022-09-12T08:23:00.151Z,99.90
2022-09-12T08:25:31.859Z,99.90
2022-09-12T08:28:03.582Z,99.90
2022-09-12T08:30:35.526Z,99.90
2022-09-12T08:33:07.903Z,99.90
2022-09-12T08:35:39.634Z,99.90
2022-09-12T08:38:11.398Z,99.90
2022-09-12T08:40:55.710Z,99.90
2022-09-12T08:43:40.726Z,99.90
2022-09-12T08:46:21.659Z,99.90
2022-09-12T08:48:55.445Z,99.90
2022-09-12T08:51:29.366Z,99.90
2022-09-12T08:54:02.350Z,99.90
2022-09-12T08:56:37.542Z,99.90
2022-09-12T08:59:09.285Z,99.90
2022-09-12T09:01:43.779Z,99.90
2022-09-12T09:04:15.474Z,99.90
2022-09-12T09:06:49.883Z,99.90
2022-09-12T09:09:33.562Z,99.90
2022-09-12T09:12:20.934Z,99.90
2022-09-12T09:15:24.743Z,99.90
2022-09-12T09:18:00.494Z,99.90
2022-09-12T09:20:56.140Z,99.90
2022-09-12T09:23:36.958Z,99.90
2022-09-12T09:26:55.995Z,99.90
2022-09-12T09:29:36.911Z,99.90
2022-09-12T09:32:18.477Z,99.90
2022-09-12T09:34:50.138Z,99.90
2022-09-12T09:37:41.422Z,99.90
2022-09-12T09:40:16.170Z,99.40
2022-09-12T09:43:19.686Z,97.50
2022-09-12T09:45:52.820Z,95.30
2022-09-12T09:48:30.426Z,95.00
2022-09-12T09:51:05.361Z,94.60
2022-09-12T09:53:51.673Z,93.20
2022-09-12T09:56:42.489Z,94.90
2022-09-12T09:59:27.679Z,94.20
2022-09-12T10:02:03.635Z,92.90
2022-09-12T10:04:41.579Z,92.30
2022-09-12T10:07:21.729Z,92.00
2022-09-12T10:10:17.019Z,91.90
2022-09-12T10:12:49.395Z,91.00
2022-09-12T10:15:26.548Z,90.50
2022-09-12T10:17:59.919Z,90.70
2022-09-12T10:20:37.551Z,87.50
2022-09-12T10:23:29.376Z,85.50
2022-09-12T10:26:05.542Z,86.80
2022-09-12T10:28:41.404Z,88.70
2022-09-12T10:31:28.850Z,87.60
2022-09-12T10:34:00.910Z,85.70
2022-09-12T10:36:38.483Z,86.50
2022-09-12T10:39:19.124Z,85.90
2022-09-12T10:41:50.828Z,86.40
2022-09-12T10:44:29.627Z,87.10
2022-09-12T10:47:22.023Z,83.20
2022-09-12T10:49:53.930Z,82.10
2022-09-12T10:52:25.845Z,82.60
2022-09-12T10:54:57.765Z,81.70
2022-09-12T10:57:47.923Z,80.60
2022-09-12T11:00:27.526Z,81.80
2022-09-12T11:03:16.049Z,81.20
2022-09-12T11:05:58.211Z,81.70
2022-09-12T11:08:55.551Z,81.70
2022-09-12T11:11:50.116Z,81.40
2022-09-12T11:14:28.443Z,82.10
2022-09-12T11:17:21.107Z,80.40
2022-09-12T11:19:56.144Z,77.20
2022-09-12T11:23:09.700Z,77.10
2022-09-12T11:25:44.410Z,77.40
2022-09-12T11:28:27.899Z,81.90
2022-09-12T11:31:31.783Z,84.30
2022-09-12T11:34:09.564Z,87.60
2022-09-12T11:37:19.888Z,85.90
2022-09-12T11:39:55.685Z,88.60
2022-09-12T11:42:33.233Z,88.80
2022-09-12T11:45:28.952Z,88.20
2022-09-12T11:48:07.425Z,90.30
2022-09-12T11:50:39.141Z,90.00
2022-09-12T11:53:28.931Z,90.60
2022-09-12T11:56:12.498Z,90.50
2022-09-12T11:58:51.611Z,90.50
2022-09-12T12:01:42.864Z,91.60
2022-09-12T12:04:21.148Z,92.00
2022-09-12T12:07:01.636Z,91.60
2022-09-12T12:09:47.413Z,91.90
2022-09-12T12:12:25.091Z,93.20
2022-09-12T12:14:57.544Z,92.50
2022-09-12T12:17:29.706Z,92.80
2022-09-12T12:20:08.219Z,92.10
2022-09-12T12:22:52.597Z,93.50
2022-09-12T12:25:38.583Z,92.20
2022-09-12T12:28:10.354Z,93.40
2022-09-12T12:31:00.075Z,93.70
2022-09-12T12:33:31.721Z,92.90
2022-09-12T12:36:28.347Z,94.50
2022-09-12T12:39:20.037Z,93.60
2022-09-12T12:41:51.769Z,94.00
2022-09-12T12:44:45.230Z,93.70
2022-09-12T12:47:19.751Z,93.20
2022-09-12T12:50:05.895Z,92.80
2022-09-12T12:53:09.775Z,91.80
2022-09-12T12:55:44.498Z,92.80
2022-09-12T12:58:39.482Z,93.10
2022-09-12T13:01:20.584Z,93.00
2022-09-12T13:04:03.755Z,92.20
2022-09-12T13:06:38.253Z,90.80
2022-09-12T13:09:45.329Z,92.50
2022-09-12T13:12:23.702Z,92.30
2022-09-12T13:15:03.366Z,92.90
2022-09-12T13:17:38.060Z,93.10
2022-09-12T13:20:31.634Z,92.90
2022-09-12T13:23:03.679Z,93.20
2022-09-12T13:25:37.036Z,92.10
2022-09-12T13:28:11.915Z,92.00
2022-09-12T13:31:03.798Z,91.30
2022-09-12T13:33:45.204Z,92.60
2022-09-12T13:36:25.883Z,92.00
2022-09-12T13:39:47.706Z,91.70
2022-09-12T13:42:41.035Z,92.40
2022-09-12T13:45:19.631Z,92.20
2022-09-12T13:48:18.109Z,92.00
2022-09-12T13:50:54.507Z,93.00
2022-09-12T13:53:32.348Z,93.00
2022-09-12T13:56:04.068Z,92.30
2022-09-12T13:58:35.940Z,92.60
2022-09-12T14:01:10.474Z,93.50
2022-09-12T14:04:12.912Z,92.90
2022-09-12T14:06:50.214Z,92.90
2022-09-12T14:09:36.280Z,93.10
2022-09-12T14:12:32.363Z,93.70
2022-09-12T14:15:04.575Z,93.00
2022-09-12T14:17:39.651Z,93.40
2022-09-12T14:20:18.516Z,94.10
2022-09-12T14:22:53.495Z,94.00
2022-09-12T14:25:29.623Z,94.00
2022-09-12T14:28:01.584Z,94.30
2022-09-12T14:30:36.482Z,95.00
2022-09-12T14:33:11.233Z,94.80
2022-09-12T14:35:47.774Z,94.70
2022-09-12T14:38:29.771Z,94.60
2022-09-12T14:41:06.208Z,94.50
2022-09-12T14:43:45.731Z,95.00
2022-09-12T14:46:37.275Z,94.90
2022-09-12T14:49:18.275Z,94.20
2022-09-12T14:51:55.545Z,93.60
2022-09-12T14:54:30.416Z,94.70
2022-09-12T14:57:17.779Z,94.00
2022-09-12T14:59:50.941Z,94.40
2022-09-12T15:02:26.982Z,94.60
2022-09-12T15:05:04.819Z,94.40
2022-09-12T15:08:00.360Z,94.90
2022-09-12T15:10:37.688Z,95.50
2022-09-12T15:13:09.363Z,96.20
2022-09-12T15:15:44.300Z,97.20
2022-09-12T15:18:16.579Z,95.70
2022-09-12T15:20:52.915Z,96.70
2022-09-12T15:23:42.864Z,95.80
2022-09-12T15:26:17.747Z,96.00
2022-09-12T15:28:50.755Z,95.20
2022-09-12T15:31:28.606Z,95.30
2022-09-12T15:34:02.246Z,95.50
2022-09-12T15:36:33.944Z,96.00
2022-09-12T15:39:05.881Z,96.10
2022-09-12T15:41:38.730Z,95.40
2022-09-12T15:44:12.877Z,95.80
2022-09-12T15:46:44.980Z,96.10
2022-09-12T15:49:17.014Z,95.10
2022-09-12T15:51:48.668Z,95.60
2022-09-12T15:54:21.046Z,96.30
2022-09-12T15:56:52.915Z,96.30
2022-09-12T15:59:25.003Z,96.30
2022-09-12T16:01:56.742Z,96.60
2022-09-12T16:04:30.412Z,96.10
2022-09-12T16:07:02.193Z,95.70
2022-09-12T16:09:34.403Z,96.50
2022-09-12T16:12:06.490Z,97.20
2022-09-12T16:14:38.155Z,96.30
2022-09-12T16:17:13.642Z,97.10
2022-09-12T16:19:45.298Z,97.00
2022-09-12T16:22:16.953Z,97.10
2022-09-12T16:24:48.597Z,96.50
2022-09-12T16:27:20.335Z,96.90
2022-09-12T16:29:52.250Z,99.30
2022-09-12T16:32:24.148Z,97.70
2022-09-12T16:34:55.799Z,98.90
2022-09-12T16:37:28.046Z,98.70
2022-09-12T16:39:59.935Z,99.90
2022-09-12T16:42:31.942Z,99.90
2022-09-12T16:45:03.954Z,99.90
2022-09-12T16:47:35.695Z,99.90
2022-09-12T16:50:07.996Z,99.90
2022-09-12T16:52:39.738Z,99.90
2022-09-12T16:55:11.408Z,99.90
2022-09-12T16:57:43.136Z,99.90
2022-09-12T17:00:15.305Z,99.90
2022-09-12T17:02:47.581Z,99.90
2022-09-12T17:05:19.410Z,99.90
2022-09-12T17:07:51.993Z,99.90
2022-09-12T17:10:23.724Z,99.90
2022-09-12T17:12:55.462Z,99.90
2022-09-12T17:15:27.259Z,99.90
2022-09-12T17:17:59.004Z,99.90
2022-09-12T17:20:30.715Z,99.90
2022-09-12T17:23:04.502Z,99.90
2022-09-12T17:25:39.602Z,99.90
2022-09-12T17:28:11.335Z,99.90
2022-09-12T17:30:43.256Z,99.90
2022-09-12T17:33:15.414Z,99.90
2022-09-12T17:35:47.098Z,99.90
2022-09-12T17:38:24.558Z,99.90
2022-09-12T17:40:59.946Z,99.90
2022-09-12T17:43:32.435Z,99.90
2022-09-12T17:46:05.206Z,99.90
2022-09-12T17:48:38.338Z,99.90
2022-09-12T17:51:11.937Z,99.90
2022-09-12T17:53:44.104Z,99.90
2022-09-12T17:56:15.851Z,99.90
2022-09-12T17:58:48.732Z,99.90
2022-09-12T18:01:38.948Z,99.90
2022-09-12T18:04:10.906Z,99.90
2022-09-12T18:06:47.933Z,99.90
2022-09-12T18:09:25.132Z,99.90
2022-09-12T18:11:57.277Z,99.90
2022-09-12T18:14:29.076Z,99.90
2022-09-12T18:17:01.358Z,99.90
2022-09-12T18:19:33.216Z,99.90
2022-09-12T18:22:09.473Z,99.90
2022-09-12T18:24:41.355Z,99.90
2022-09-12T18:27:13.114Z,99.90
2022-09-12T18:29:51.945Z,99.90
2022-09-12T18:32:36.279Z,99.90
2022-09-12T18:35:08.586Z,99.90
2022-09-12T18:37:43.993Z,99.90
2022-09-12T18:40:15.770Z,99.90
2022-09-12T18:42:47.458Z,99.90
2022-09-12T18:45:19.103Z,99.90
2022-09-12T18:47:51.035Z,99.90
2022-09-12T18:50:24.296Z,99.90
2022-09-12T18:52:59.604Z,99.90
2022-09-12T18:55:33.340Z,99.90
2022-09-12T18:58:05.028Z,99.90
2022-09-12T19:00:37.072Z,99.90
2022-09-12T19:03:08.731Z,99.90
2022-09-12T19:05:40.399Z,99.90
2022-09-12T19:08:12.048Z,99.90
2022-09-12T19:10:44.163Z,99.90
2022-09-12T19:13:17.446Z,99.90
2022-09-12T19:15:49.276Z,99.90
2022-09-12T19:18:21.016Z,99.90
2022-09-12T19:20:52.951Z,99.90
2022-09-12T19:23:24.768Z,99.90
2022-09-12T19:25:58.243Z,99.90
2022-09-12T19:28:30.868Z,99.90
2022-09-12T19:31:11.284Z,99.90
2022-09-12T19:33:44.597Z,99.90
2022-09-12T19:36:41.309Z,99.90
2022-09-12T19:39:10.374Z,99.90
2022-09-12T19:41:42.543Z,99.90
2022-09-12T19:44:14.651Z,99.90
2022-09-12T19:46:46.369Z,99.90
2022-09-12T19:49:18.168Z,99.90
2022-09-12T19:51:49.863Z,99.90
2022-09-12T19:54:21.531Z,99.90
2022-09-12T19:56:53.334Z,99.90
2022-09-12T19:59:25.062Z,99.90
2022-09-12T20:01:56.894Z,99.90
2022-09-12T20:04:29.706Z,99.90
2022-09-12T20:07:01.384Z,99.90
2022-09-12T20:09:33.139Z,99.90
2022-09-12T20:12:05.438Z,99.90
2022-09-12T20:14:37.188Z,99.90
2022-09-12T20:17:08.971Z,99.90
2022-09-12T20:19:40.764Z,99.90
2022-09-12T20:22:12.421Z,99.90
2022-09-12T20:24:44.303Z,99.90
2022-09-12T20:27:16.546Z,99.90
2022-09-12T20:29:48.243Z,99.90
2022-09-12T20:32:20.507Z,99.90
2022-09-12T20:34:52.187Z,99.90
2022-09-12T20:37:24.066Z,99.90
2022-09-12T20:39:55.837Z,99.90
2022-09-12T20:42:29.368Z,99.90
2022-09-12T20:45:01.216Z,99.90
2022-09-12T20:47:32.943Z,99.90
2022-09-12T20:50:04.982Z,99.90
2022-09-12T20:52:36.851Z,99.90
2022-09-12T20:55:09.199Z,99.90
2022-09-12T20:57:40.950Z,99.90
2022-09-12T21:00:13.253Z,99.90
2022-09-12T21:02:45.255Z,99.90
2022-09-12T21:05:17.238Z,99.90
2022-09-12T21:07:49.010Z,99.90
2022-09-12T21:10:20.731Z,99.90
2022-09-12T21:12:52.744Z,99.90
2022-09-12T21:15:24.742Z,99.90
2022-09-12T21:17:56.557Z,99.90
2022-09-12T21:20:28.250Z,99.90
2022-09-12T21:23:00.340Z,99.90
2022-09-12T21:25:32.123Z,99.90
2022-09-12T21:28:03.783Z,99.90
2022-09-12T21:30:35.472Z,99.90
2022-09-12T21:33:07.197Z,99.90
2022-09-12T21:35:38.987Z,99.90
2022-09-12T21:38:11.104Z,99.90
2022-09-12T21:40:43.019Z,99.90
2022-09-12T21:43:15.310Z,99.90
2022-09-12T21:45:46.999Z,99.90
2022-09-12T21:48:18.642Z,99.90
2022-09-12T21:50:50.992Z,99.90
2022-09-12T21:53:23.123Z,99.90
2022-09-12T21:55:55.079Z,99.90
2022-09-12T21:58:26.743Z,99.90
2022-09-12T22:01:00.280Z,99.90
2022-09-12T22:03:32.148Z,99.90
2022-09-12T22:06:05.966Z,99.90
2022-09-12T22:08:38.825Z,99.90
2022-09-12T22:11:10.731Z,99.90
2022-09-12T22:13:45.204Z,99.90
2022-09-12T22:16:17.756Z,99.90
2022-09-12T22:18:50.733Z,99.90
2022-09-12T22:21:24.298Z,99.90
2022-09-12T22:24:14.576Z,99.90
2022-09-12T22:26:46.610Z,99.90
2022-09-12T22:29:18.556Z,99.90
2022-09-12T22:31:50.370Z,99.90
2022-09-12T22:34:22.110Z,99.90
2022-09-12T22:36:53.786Z,99.90
2022-09-12T22:39:26.023Z,99.90
2022-09-12T22:41:58.116Z,99.90
2022-09-12T22:44:30.300Z,99.90
2022-09-12T22:47:02.050Z,99.90
2022-09-12T22:49:33.979Z,99.90
2022-09-12T22:52:05.728Z,99.90
2022-09-12T22:54:37.691Z,99.90
2022-09-12T22:57:09.533Z,99.90
2022-09-12T22:59:41.296Z,99.90
2022-09-12T23:02:13.012Z,99.90
2022-09-12T23:04:46.626Z,99.90
2022-09-12T23:07:18.539Z,99.90
2022-09-12T23:09:50.206Z,99.90
2022-09-12T23:12:21.862Z,99.90
2022-09-12T23:14:53.725Z,99.90
2022-09-12T23:17:25.472Z,99.90
2022-09-12T23:19:57.198Z,99.90
2022-09-12T23:22:28.900Z,99.90
2022-09-12T23:25:00.555Z,99.90
2022-09-12T23:27:32.205Z,99.90
2022-09-12T23:30:04.259Z,99.90
2022-09-12T23:32:36.643Z,99.90
2022-09-12T23:35:08.364Z,99.90
2022-09-12T23:37:40.146Z,99.90
2022-09-12T23:40:12.016Z,99.90
2022-09-12T23:42:43.797Z,99.90
2022-09-12T23:45:15.580Z,99.90
2022-09-12T23:47:47.226Z,99.90
2022-09-12T23:50:18.891Z,99.90
2022-09-12T23:52:50.542Z,99.90
2022-09-12T23:55:22.271Z,99.90
2022-09-12T23:57:53.963Z,99.90
